Orchid Ace — 7JDE — position and weather

sailwx.info

Track history (hours):
 
Tides and Currents Weather Stations Pressure Air Temp Water Temp Dewpoint Dewpoint Depression Visibility Wind Speed Wind Dir Waves Ship Positions

Orchid Ace

Last reported at 2015-Jan-06 00:32 UTC. Time now 2015-Jan-27 20:59 UTC.
Position S 29°39' E 031°48'.
Warning: this ship's position is 21 days out of date.

Length 200 m; draft 7.6 m.

Type: Cargo ship. MMSI: 432651000.

Date/timePositionNaut miles runAvg speedWind from/ knotsBaromVisibWave heightAir tempDewpointWater temp
2015-Jan-06 00:32S 29°39' E 031°48'1212.4
2015-Jan-05 23:33S 29°43' E 031°34'1414.1
2015-Jan-05 22:33S 29°47' E 031°19'1413.8
2015-Jan-05 21:33S 29°52' E 031°04'2 1.6
2015-Jan-05 20:33S 29°52' E 031°02'0 0.0
2015-Jan-05 19:33S 29°52' E 031°02'0 0.0
2015-Jan-05 17:33S 29°52' E 031°02'0 0.0
2015-Jan-05 16:21S 29°52' E 031°02'0 0.0
2015-Jan-05 15:27S 29°52' E 031°02'0 0.0
2015-Jan-05 14:33S 29°52' E 031°02'0 0.0
2015-Jan-05 13:33S 29°52' E 031°02'7 7.0
2015-Jan-05 12:33S 29°46' E 031°07'4 3.6
2015-Jan-05 11:25S 29°43' E 031°09'0 0.0
2015-Jan-05 09:13S 29°43' E 031°09'0 0.0
2015-Jan-05 08:31S 29°43' E 031°09'0 0.0
2015-Jan-05 07:25S 29°43' E 031°09'0 0.0
2015-Jan-05 06:25S 29°43' E 031°09'0 0.0
2015-Jan-05 05:31S 29°43' E 031°09'0 0.0
2015-Jan-05 04:31S 29°43' E 031°09'0 0.0
2015-Jan-05 03:19S 29°43' E 031°09'0 0.0
2015-Jan-05 02:19S 29°43' E 031°09'0 0.0
2015-Jan-05 01:31S 29°43' E 031°09'0 0.0
2015-Jan-05 00:07S 29°43' E 031°09'0 0.0
2015-Jan-04 22:31S 29°43' E 031°09'0 0.0
2015-Jan-04 21:13S 29°43' E 031°09'0 0.0
2015-Jan-04 20:19S 29°43' E 031°09'0 0.0
2015-Jan-04 19:25S 29°43' E 031°09'0 0.0
2015-Jan-04 18:31S 29°43' E 031°09'0 0.0
2015-Jan-04 17:19S 29°43' E 031°09'0 0.0
2015-Jan-04 16:25S 29°43' E 031°09'0 0.0
2015-Jan-04 15:31S 29°43' E 031°09'0 0.0
2015-Jan-04 14:31S 29°43' E 031°09'3 3.3
2015-Jan-04 13:33S 29°45' E 031°12'1413.8
2015-Jan-04 12:33S 29°59' E 031°12'1818.0
2015-Jan-04 11:33S 30°13' E 031°01'13712.4
2015-Jan-04 00:30S 32°02' E 029°24'3411.2
2015-Jan-03 21:27S 32°26' E 028°55'60 4.2
2015-Jan-03 07:14S 33°02' E 027°59'9313.0
2015-Jan-03 00:06S 33°58' E 026°30'91 3.1
2015-Jan-01 18:28S 34°36' E 024°49'  
Track history (hours):
 
Tides and Currents Weather Stations Pressure Air Temp Water Temp Dewpoint Dewpoint Depression Visibility Wind Speed Wind Dir Waves Ship Positions

Orchid Ace

Last reported at 2015-Jan-06 00:32 UTC. Time now 2015-Jan-27 20:59 UTC.
Position S 29°39' E 031°48'.
Warning: this ship's position is 21 days out of date.

Length 200 m; draft 7.6 m.

Type: Cargo ship. MMSI: 432651000.

Date/timePositionNaut miles runAvg speedWind from/ knotsBaromVisibWave heightAir tempDewpointWater temp
2015-Jan-06 00:32S 29°39' E 031°48'1212.4
2015-Jan-05 23:33S 29°43' E 031°34'1414.1
2015-Jan-05 22:33S 29°47' E 031°19'1413.8
2015-Jan-05 21:33S 29°52' E 031°04'2 1.6
2015-Jan-05 20:33S 29°52' E 031°02'0 0.0
2015-Jan-05 19:33S 29°52' E 031°02'0 0.0
2015-Jan-05 17:33S 29°52' E 031°02'0 0.0
2015-Jan-05 16:21S 29°52' E 031°02'0 0.0
2015-Jan-05 15:27S 29°52' E 031°02'0 0.0
2015-Jan-05 14:33S 29°52' E 031°02'0 0.0
2015-Jan-05 13:33S 29°52' E 031°02'7 7.0
2015-Jan-05 12:33S 29°46' E 031°07'4 3.6
2015-Jan-05 11:25S 29°43' E 031°09'0 0.0
2015-Jan-05 09:13S 29°43' E 031°09'0 0.0
2015-Jan-05 08:31S 29°43' E 031°09'0 0.0
2015-Jan-05 07:25S 29°43' E 031°09'0 0.0
2015-Jan-05 06:25S 29°43' E 031°09'0 0.0
2015-Jan-05 05:31S 29°43' E 031°09'0 0.0
2015-Jan-05 04:31S 29°43' E 031°09'0 0.0
2015-Jan-05 03:19S 29°43' E 031°09'0 0.0
2015-Jan-05 02:19S 29°43' E 031°09'0 0.0
2015-Jan-05 01:31S 29°43' E 031°09'0 0.0
2015-Jan-05 00:07S 29°43' E 031°09'0 0.0
2015-Jan-04 22:31S 29°43' E 031°09'0 0.0
2015-Jan-04 21:13S 29°43' E 031°09'0 0.0
2015-Jan-04 20:19S 29°43' E 031°09'0 0.0
2015-Jan-04 19:25S 29°43' E 031°09'0 0.0
2015-Jan-04 18:31S 29°43' E 031°09'0 0.0
2015-Jan-04 17:19S 29°43' E 031°09'0 0.0
2015-Jan-04 16:25S 29°43' E 031°09'0 0.0
2015-Jan-04 15:31S 29°43' E 031°09'0 0.0
2015-Jan-04 14:31S 29°43' E 031°09'3 3.3
2015-Jan-04 13:33S 29°45' E 031°12'1413.8
2015-Jan-04 12:33S 29°59' E 031°12'1818.0
2015-Jan-04 11:33S 30°13' E 031°01'13712.4
2015-Jan-04 00:30S 32°02' E 029°24'3411.2
2015-Jan-03 21:27S 32°26' E 028°55'60 4.2
2015-Jan-03 07:14S 33°02' E 027°59'9313.0
2015-Jan-03 00:06S 33°58' E 026°30'91 3.1
2015-Jan-01 18:28S 34°36' E 024°49'  

Dump ship's entire track history